createdAt,value
2022-08-22T00:02:54.996Z,17.09
2022-08-22T00:03:08.328Z,16.84
2022-08-22T00:04:37.315Z,16.95
2022-08-22T00:10:25.232Z,16.83
2022-08-22T00:16:09.634Z,16.89
2022-08-22T00:21:43.755Z,16.63
2022-08-22T00:27:15.754Z,16.51
2022-08-22T00:33:05.524Z,16.34
2022-08-22T00:38:34.065Z,16.62
2022-08-22T00:44:23.775Z,16.52
2022-08-22T00:49:59.185Z,16.43
2022-08-22T00:55:37.654Z,16.16
2022-08-22T01:01:07.406Z,16.25
2022-08-22T01:06:52.154Z,16.29
2022-08-22T01:12:53.446Z,16.13
2022-08-22T01:18:58.367Z,16.18
2022-08-22T01:25:01.044Z,16.26
2022-08-22T01:30:33.824Z,16.21
2022-08-22T01:36:15.038Z,16.16
2022-08-22T01:42:05.684Z,16.11
2022-08-22T01:47:37.629Z,16.02
2022-08-22T01:53:06.494Z,15.97
2022-08-22T01:58:34.844Z,15.78
2022-08-22T02:04:22.525Z,15.82
2022-08-22T02:09:53.231Z,15.83
2022-08-22T02:15:18.883Z,15.84
2022-08-22T02:21:03.338Z,15.85
2022-08-22T02:27:07.586Z,15.83
2022-08-22T02:32:42.234Z,15.94
2022-08-22T02:38:29.784Z,15.78
2022-08-22T02:44:14.994Z,16.02
2022-08-22T02:50:14.084Z,16.03
2022-08-22T02:55:48.373Z,16.03
2022-08-22T03:01:24.704Z,15.99
2022-08-22T03:07:34.248Z,15.71
2022-08-22T03:13:07.324Z,16.04
2022-08-22T03:18:58.664Z,16.07
2022-08-22T03:24:23.678Z,16.12
2022-08-22T03:29:51.884Z,16.18
2022-08-22T03:35:33.072Z,16.24
2022-08-22T03:41:10.551Z,16.33
2022-08-22T03:47:08.574Z,16.33
2022-08-22T03:53:15.288Z,16.53
2022-08-22T03:58:59.682Z,16.64
2022-08-22T04:04:55.824Z,16.78
2022-08-22T04:10:36.185Z,16.95
2022-08-22T04:16:16.506Z,17.13
2022-08-22T04:21:58.106Z,17.46
2022-08-22T04:27:50.484Z,17.81
2022-08-22T04:33:56.858Z,18.71
2022-08-22T04:39:26.624Z,19.25
2022-08-22T04:44:54.344Z,19.53
2022-08-22T04:50:51.794Z,19.65
2022-08-22T04:56:39.484Z,20.35
2022-08-22T05:02:07.457Z,20.94
2022-08-22T05:07:40.484Z,21.34
2022-08-22T05:13:27.595Z,21.78
2022-08-22T05:18:58.704Z,22.15
2022-08-22T05:24:28.307Z,22.58
2022-08-22T05:29:55.660Z,22.96
2022-08-22T05:35:20.454Z,23.41
2022-08-22T05:40:45.275Z,23.87
2022-08-22T05:46:13.584Z,24.29
2022-08-22T05:52:01.364Z,24.46
2022-08-22T05:57:38.055Z,24.54
2022-08-22T06:03:22.276Z,24.49
2022-08-22T06:09:05.834Z,24.53
2022-08-22T06:14:42.738Z,24.89
2022-08-22T06:20:09.522Z,25.20
2022-08-22T06:25:35.114Z,25.59
2022-08-22T06:30:59.235Z,25.83
2022-08-22T06:36:33.005Z,25.96
2022-08-22T06:42:03.407Z,26.14
2022-08-22T06:47:40.154Z,26.30
2022-08-22T06:53:09.797Z,26.30
2022-08-22T06:58:45.174Z,26.37
2022-08-22T07:04:09.582Z,26.48
2022-08-22T07:09:35.765Z,26.36
2022-08-22T07:15:11.706Z,26.81
2022-08-22T07:20:46.723Z,27.09
2022-08-22T07:26:54.036Z,27.16
2022-08-22T07:32:38.655Z,27.24
2022-08-22T07:38:00.876Z,27.36
2022-08-22T07:43:34.207Z,27.33
2022-08-22T07:49:14.062Z,27.56
2022-08-22T07:54:43.605Z,27.47
2022-08-22T08:00:13.516Z,27.84
2022-08-22T08:05:41.705Z,27.71
2022-08-22T08:11:05.686Z,27.57
2022-08-22T08:16:34.914Z,27.42
2022-08-22T08:21:58.585Z,27.30
2022-08-22T08:27:45.611Z,27.33
2022-08-22T08:33:24.659Z,27.37
2022-08-22T08:38:56.766Z,27.58
2022-08-22T08:44:39.094Z,27.57
2022-08-22T08:50:40.552Z,27.67
2022-08-22T08:56:47.154Z,27.71
2022-08-22T09:02:38.170Z,27.61
2022-08-22T09:08:25.263Z,27.54
2022-08-22T09:13:58.883Z,27.57
2022-08-22T09:19:39.265Z,27.60
2022-08-22T09:25:19.596Z,27.64
2022-08-22T09:31:16.852Z,27.70
2022-08-22T09:37:14.195Z,27.93
2022-08-22T09:43:05.955Z,28.00
2022-08-22T09:48:43.654Z,28.01
2022-08-22T09:54:11.222Z,27.88
2022-08-22T09:59:58.056Z,28.07
2022-08-22T10:05:44.266Z,28.05
2022-08-22T10:11:28.669Z,28.10
2022-08-22T10:17:26.183Z,28.22
2022-08-22T10:22:57.374Z,28.30
2022-08-22T10:28:57.308Z,28.29
2022-08-22T10:34:36.996Z,28.30
2022-08-22T10:40:16.842Z,28.26
2022-08-22T10:45:44.706Z,28.21
2022-08-22T10:51:31.002Z,28.11
2022-08-22T10:57:06.790Z,28.11
2022-08-22T11:02:55.482Z,28.11
2022-08-22T11:08:40.021Z,28.03
2022-08-22T11:14:08.525Z,28.04
2022-08-22T11:20:10.354Z,28.28
2022-08-22T11:25:53.709Z,28.46
2022-08-22T11:31:25.827Z,28.17
2022-08-22T11:37:20.446Z,28.52
2022-08-22T11:42:57.547Z,28.53
2022-08-22T11:48:53.886Z,28.14
2022-08-22T11:54:21.268Z,28.18
2022-08-22T12:00:27.597Z,28.12
2022-08-22T12:06:37.216Z,28.00
2022-08-22T12:12:26.290Z,28.02
2022-08-22T12:18:07.260Z,28.03
2022-08-22T12:23:49.762Z,27.98
2022-08-22T12:29:33.384Z,28.00
2022-08-22T12:35:19.784Z,27.94
2022-08-22T12:41:13.600Z,27.77
2022-08-22T12:47:17.337Z,27.76
2022-08-22T12:52:49.118Z,27.72
2022-08-22T12:58:30.502Z,27.71
2022-08-22T13:04:03.609Z,27.70
2022-08-22T13:09:36.227Z,27.68
2022-08-22T13:15:31.799Z,27.61
2022-08-22T13:20:58.876Z,27.52
2022-08-22T13:26:33.989Z,27.29
2022-08-22T13:32:02.332Z,27.23
2022-08-22T13:37:50.129Z,27.29
2022-08-22T13:43:23.454Z,27.38
2022-08-22T13:48:50.452Z,27.38
2022-08-22T13:54:13.006Z,27.38
2022-08-22T14:00:11.986Z,27.42
2022-08-22T14:06:32.615Z,27.28
2022-08-22T14:11:44.774Z,27.50
2022-08-22T14:17:14.122Z,27.48
2022-08-22T14:22:45.892Z,27.51
2022-08-22T14:28:30.365Z,27.34
2022-08-22T14:33:53.854Z,27.39
2022-08-22T14:39:34.791Z,27.41
2022-08-22T14:45:11.466Z,27.32
2022-08-22T14:50:52.919Z,27.24
2022-08-22T14:56:24.497Z,27.14
2022-08-22T15:02:03.410Z,27.01
2022-08-22T15:07:30.954Z,26.73
2022-08-22T15:12:56.755Z,26.73
2022-08-22T15:18:34.256Z,26.63
2022-08-22T15:24:02.094Z,26.51
2022-08-22T15:29:29.035Z,26.41
2022-08-22T15:34:52.917Z,26.30
2022-08-22T15:40:40.505Z,26.20
2022-08-22T15:46:21.273Z,26.07
2022-08-22T15:52:01.598Z,25.84
2022-08-22T15:57:39.490Z,25.79
2022-08-22T16:03:10.483Z,25.56
2022-08-22T16:08:45.439Z,25.37
2022-08-22T16:14:21.348Z,25.26
2022-08-22T16:19:43.485Z,25.05
2022-08-22T16:25:10.444Z,24.86
2022-08-22T16:30:37.422Z,24.86
2022-08-22T16:36:21.424Z,24.70
2022-08-22T16:41:44.731Z,24.54
2022-08-22T16:47:42.253Z,24.38
2022-08-22T16:53:12.263Z,24.21
2022-08-22T16:59:14.164Z,23.92
2022-08-22T17:04:54.476Z,23.93
2022-08-22T17:10:37.003Z,23.83
2022-08-22T17:16:23.442Z,23.66
2022-08-22T17:21:56.664Z,23.66
2022-08-22T17:27:33.273Z,23.46
2022-08-22T17:33:17.526Z,23.51
2022-08-22T17:39:14.101Z,23.43
2022-08-22T17:44:46.934Z,23.33
2022-08-22T17:50:39.985Z,23.22
2022-08-22T17:56:18.755Z,23.09
2022-08-22T18:01:43.760Z,22.98
2022-08-22T18:07:31.232Z,22.82
2022-08-22T18:13:14.985Z,22.69
2022-08-22T18:18:46.475Z,22.48
2022-08-22T18:24:14.890Z,22.45
2022-08-22T18:30:00.491Z,22.34
2022-08-22T18:35:46.735Z,22.22
2022-08-22T18:41:22.501Z,22.02
2022-08-22T18:46:52.104Z,22.05
2022-08-22T18:52:37.734Z,21.91
2022-08-22T18:58:09.965Z,21.90
2022-08-22T19:03:46.053Z,21.85
2022-08-22T19:09:32.612Z,21.81
2022-08-22T19:15:11.500Z,21.43
2022-08-22T19:20:56.155Z,21.40
2022-08-22T19:26:36.096Z,21.17
2022-08-22T19:32:02.545Z,21.47
2022-08-22T19:37:33.314Z,21.36
2022-08-22T19:42:56.807Z,20.95
2022-08-22T19:48:27.807Z,21.33
2022-08-22T19:54:02.156Z,21.37
2022-08-22T19:59:38.415Z,20.94
2022-08-22T20:05:15.595Z,21.35
2022-08-22T20:11:01.625Z,21.43
2022-08-22T20:17:01.696Z,21.44
2022-08-22T20:22:29.866Z,21.46
2022-08-22T20:28:03.178Z,21.46
2022-08-22T20:33:30.076Z,21.46
2022-08-22T20:38:56.237Z,21.50
2022-08-22T20:44:24.853Z,21.44
2022-08-22T20:49:53.645Z,21.47
2022-08-22T20:55:19.746Z,21.50
2022-08-22T21:00:48.402Z,21.54
2022-08-22T21:06:16.549Z,21.61
2022-08-22T21:11:41.697Z,21.43
2022-08-22T21:17:28.127Z,21.45
2022-08-22T21:22:53.236Z,21.19
2022-08-22T21:28:34.985Z,21.40
2022-08-22T21:33:57.666Z,21.30
2022-08-22T21:39:28.990Z,21.35
2022-08-22T21:45:07.912Z,21.23
2022-08-22T21:50:38.563Z,21.11
2022-08-22T21:56:15.944Z,21.01
2022-08-22T22:01:38.328Z,20.97
2022-08-22T22:07:04.577Z,20.89
2022-08-22T22:12:26.747Z,20.64
2022-08-22T22:17:49.454Z,20.66
2022-08-22T22:23:11.957Z,20.54
2022-08-22T22:28:38.658Z,20.49
2022-08-22T22:34:00.875Z,20.45
2022-08-22T22:39:23.278Z,20.37
2022-08-22T22:44:47.458Z,20.07
2022-08-22T22:50:09.877Z,20.34
2022-08-22T22:55:32.106Z,20.22
2022-08-22T23:00:54.324Z,20.16
2022-08-22T23:06:20.638Z,20.18
2022-08-22T23:11:43.957Z,19.90
2022-08-22T23:17:06.692Z,20.19
2022-08-22T23:22:30.762Z,20.07
2022-08-22T23:27:53.186Z,20.14
2022-08-22T23:33:16.106Z,20.03
2022-08-22T23:38:38.389Z,20.13
2022-08-22T23:44:00.969Z,19.95
2022-08-22T23:49:27.251Z,19.96
2022-08-22T23:54:51.558Z,20.07
